WZZ4692 LRSV-EDLW
Flight info
| Callsign | WZZ4692 |
|---|---|
| Flight time | 2h 6m |
| Altitude | 36000 |
| Route | HUMOR DCT KUSIS DCT PITOK DCT VOZ DCT OKG L984 OSBIT/N0430F240 Z719 BIBTA N850 GISEM Z505 ARPEG Z850 BADGO/N0354F100 Z850 ADEMI ADEMI2A |
| Aircraft | A320/M-SDE3FGHIRWY/LB1 |
Departure
| Time | 2026-05-06 08:35 |
|---|---|
| Airport | Suceava Ștefan cel Mare International Airport (LRSV) |
Arrival
| Time | 2026-05-06 10:41 |
|---|---|
| Airport | Dortmund Airport (EDLW) |
| Time | Latitude | Longitude | Altitude | Speed | Heading |
|---|---|---|---|---|---|
| 2026-05-06 08:15 | 47.68596 | 26.35110 | 1354 ft | 0 kts | 259° |
| 2026-05-06 08:26 | 47.68594 | 26.35113 | 1354 ft | 4 kts | 214° |
| 2026-05-06 08:26 | 47.68613 | 26.35140 | 1355 ft | 4 kts | 225° |
| 2026-05-06 08:26 | 47.68634 | 26.35163 | 1354 ft | 4 kts | 194° |
| 2026-05-06 08:27 | 47.68653 | 26.35164 | 1353 ft | 1 kts | 164° |
| 2026-05-06 08:27 | 47.68657 | 26.35163 | 1356 ft | 0 kts | 164° |
| 2026-05-06 08:31 | 47.68651 | 26.35165 | 1356 ft | 4 kts | 164° |
| 2026-05-06 08:31 | 47.68598 | 26.35188 | 1353 ft | 12 kts | 164° |
| 2026-05-06 08:31 | 47.68514 | 26.35254 | 1351 ft | 16 kts | 114° |
| 2026-05-06 08:31 | 47.68530 | 26.35422 | 1352 ft | 17 kts | 70° |
| 2026-05-06 08:32 | 47.68594 | 26.35474 | 1356 ft | 7 kts | 349° |
| 2026-05-06 08:32 | 47.68628 | 26.35463 | 1355 ft | 6 kts | 346° |
| 2026-05-06 08:32 | 47.68693 | 26.35438 | 1358 ft | 13 kts | 345° |
| 2026-05-06 08:32 | 47.68808 | 26.35392 | 1359 ft | 21 kts | 345° |
| 2026-05-06 08:33 | 47.68969 | 26.35312 | 1363 ft | 28 kts | 340° |
| 2026-05-06 08:33 | 47.69174 | 26.35213 | 1369 ft | 34 kts | 343° |
| 2026-05-06 08:33 | 47.69404 | 26.35111 | 1375 ft | 32 kts | 342° |
| 2026-05-06 08:33 | 47.69574 | 26.35001 | 1380 ft | 23 kts | 321° |
| 2026-05-06 08:34 | 47.69632 | 26.34998 | 1382 ft | 2 kts | 131° |
| 2026-05-06 08:34 | 47.69607 | 26.35020 | 1377 ft | 5 kts | 152° |
| 2026-05-06 08:34 | 47.69428 | 26.35112 | 1376 ft | 63 kts | 163° |
| 2026-05-06 08:35 | 47.68785 | 26.35383 | 1358 ft | 126 kts | 163° |
| 2026-05-06 08:35 | 47.67785 | 26.35812 | 1516 ft | 158 kts | 163° |
| 2026-05-06 08:35 | 47.66722 | 26.36327 | 2132 ft | 163 kts | 162° |
| 2026-05-06 08:35 | 47.65638 | 26.36876 | 2735 ft | 168 kts | 163° |
| 2026-05-06 08:36 | 47.64453 | 26.37411 | 3157 ft | 189 kts | 164° |
| 2026-05-06 08:36 | 47.63110 | 26.37992 | 3521 ft | 212 kts | 165° |
| 2026-05-06 08:36 | 47.61594 | 26.38530 | 3874 ft | 237 kts | 175° |
| 2026-05-06 08:36 | 47.59850 | 26.38299 | 4378 ft | 260 kts | 197° |
| 2026-05-06 08:37 | 47.58228 | 26.37057 | 5202 ft | 269 kts | 219° |
| 2026-05-06 08:37 | 47.57004 | 26.34947 | 6162 ft | 274 kts | 241° |
| 2026-05-06 08:37 | 47.56422 | 26.32254 | 7115 ft | 279 kts | 264° |
| 2026-05-06 08:37 | 47.56618 | 26.29385 | 8047 ft | 284 kts | 287° |
| 2026-05-06 08:38 | 47.57262 | 26.26613 | 8994 ft | 287 kts | 288° |
| 2026-05-06 08:38 | 47.57932 | 26.23805 | 9925 ft | 290 kts | 289° |
| 2026-05-06 08:38 | 47.58610 | 26.20978 | 10748 ft | 294 kts | 289° |
| 2026-05-06 08:38 | 47.59262 | 26.18115 | 11531 ft | 299 kts | 283° |
| 2026-05-06 08:39 | 47.59514 | 26.15053 | 12304 ft | 303 kts | 268° |
| 2026-05-06 08:39 | 47.59208 | 26.11902 | 12830 ft | 319 kts | 252° |
| 2026-05-06 08:39 | 47.58363 | 26.08744 | 13052 ft | 342 kts | 248° |
| 2026-05-06 08:39 | 47.57914 | 26.05188 | 13227 ft | 367 kts | 269° |
| 2026-05-06 08:40 | 47.58135 | 26.01308 | 13567 ft | 385 kts | 278° |
| 2026-05-06 08:40 | 47.58628 | 25.97376 | 14180 ft | 392 kts | 281° |
| 2026-05-06 08:40 | 47.59212 | 25.93395 | 14862 ft | 397 kts | 281° |
| 2026-05-06 08:40 | 47.59772 | 25.89389 | 15567 ft | 399 kts | 280° |
| 2026-05-06 08:41 | 47.60268 | 25.85336 | 16266 ft | 402 kts | 279° |
| 2026-05-06 08:41 | 47.60700 | 25.81216 | 16967 ft | 405 kts | 277° |
| 2026-05-06 08:41 | 47.61081 | 25.77072 | 17654 ft | 408 kts | 276° |
| 2026-05-06 08:41 | 47.61441 | 25.72871 | 18333 ft | 412 kts | 276° |
| 2026-05-06 08:42 | 47.61799 | 25.68655 | 18935 ft | 415 kts | 276° |
| 2026-05-06 08:42 | 47.62171 | 25.64391 | 19568 ft | 418 kts | 276° |
| 2026-05-06 08:42 | 47.62551 | 25.60113 | 20205 ft | 421 kts | 276° |
| 2026-05-06 08:42 | 47.62939 | 25.55784 | 20838 ft | 424 kts | 276° |
| 2026-05-06 08:43 | 47.63331 | 25.51441 | 21455 ft | 428 kts | 276° |
| 2026-05-06 08:43 | 47.63731 | 25.47046 | 22052 ft | 431 kts | 277° |
| 2026-05-06 08:43 | 47.64131 | 25.42636 | 22633 ft | 434 kts | 276° |
| 2026-05-06 08:43 | 47.64527 | 25.38229 | 23185 ft | 438 kts | 276° |
| 2026-05-06 08:44 | 47.64925 | 25.33749 | 23739 ft | 441 kts | 277° |
| 2026-05-06 08:44 | 47.65327 | 25.29216 | 24237 ft | 444 kts | 277° |
| 2026-05-06 08:44 | 47.65727 | 25.24677 | 24740 ft | 446 kts | 277° |
| 2026-05-06 08:44 | 47.66129 | 25.20115 | 25216 ft | 448 kts | 277° |
| 2026-05-06 08:45 | 47.66531 | 25.15509 | 25683 ft | 450 kts | 277° |
| 2026-05-06 08:45 | 47.66930 | 25.10900 | 26138 ft | 453 kts | 277° |
| 2026-05-06 08:45 | 47.67330 | 25.06247 | 26610 ft | 454 kts | 277° |
| 2026-05-06 08:45 | 47.67726 | 25.01618 | 27270 ft | 452 kts | 277° |
| 2026-05-06 08:46 | 47.68119 | 24.96997 | 27946 ft | 449 kts | 277° |
| 2026-05-06 08:46 | 47.68508 | 24.92421 | 28584 ft | 447 kts | 277° |
| 2026-05-06 08:46 | 47.68892 | 24.87904 | 29216 ft | 445 kts | 277° |
| 2026-05-06 08:46 | 47.69276 | 24.83365 | 29854 ft | 443 kts | 277° |
| 2026-05-06 08:47 | 47.69659 | 24.78824 | 30412 ft | 441 kts | 277° |
| 2026-05-06 08:47 | 47.70036 | 24.74322 | 30959 ft | 439 kts | 277° |
| 2026-05-06 08:47 | 47.70408 | 24.69825 | 31521 ft | 437 kts | 277° |
| 2026-05-06 08:47 | 47.70773 | 24.65367 | 32064 ft | 435 kts | 277° |
| 2026-05-06 08:48 | 47.71140 | 24.60906 | 32602 ft | 433 kts | 277° |
| 2026-05-06 08:48 | 47.71502 | 24.56481 | 33137 ft | 432 kts | 277° |
| 2026-05-06 08:48 | 47.71859 | 24.52054 | 33678 ft | 430 kts | 277° |
| 2026-05-06 08:48 | 47.72208 | 24.47717 | 34180 ft | 429 kts | 277° |
| 2026-05-06 08:49 | 47.72561 | 24.43335 | 34625 ft | 428 kts | 277° |
| 2026-05-06 08:49 | 47.72913 | 24.38941 | 35062 ft | 427 kts | 277° |
| 2026-05-06 08:49 | 47.73264 | 24.34576 | 35487 ft | 426 kts | 277° |
| 2026-05-06 08:49 | 47.73615 | 24.30195 | 35883 ft | 427 kts | 277° |
| 2026-05-06 08:50 | 47.73962 | 24.25824 | 35994 ft | 429 kts | 277° |
| 2026-05-06 08:50 | 47.74654 | 24.16920 | 35994 ft | 436 kts | 277° |
| 2026-05-06 08:51 | 47.75339 | 24.07954 | 35994 ft | 436 kts | 277° |
| 2026-05-06 08:51 | 47.76034 | 23.98998 | 35995 ft | 436 kts | 277° |
| 2026-05-06 08:52 | 47.76719 | 23.90048 | 36001 ft | 436 kts | 277° |
| 2026-05-06 08:52 | 47.77394 | 23.81116 | 36004 ft | 436 kts | 276° |
| 2026-05-06 08:53 | 47.78057 | 23.72159 | 36007 ft | 436 kts | 276° |
| 2026-05-06 08:53 | 47.78714 | 23.63261 | 36008 ft | 436 kts | 276° |
| 2026-05-06 08:54 | 47.79369 | 23.54305 | 36013 ft | 435 kts | 276° |
| 2026-05-06 08:54 | 47.80015 | 23.45349 | 36015 ft | 435 kts | 276° |
| 2026-05-06 08:55 | 47.80651 | 23.36396 | 36012 ft | 435 kts | 276° |
| 2026-05-06 08:55 | 47.81281 | 23.27438 | 36014 ft | 435 kts | 276° |
| 2026-05-06 08:56 | 47.81902 | 23.18546 | 36012 ft | 435 kts | 276° |
| 2026-05-06 08:56 | 47.82514 | 23.09599 | 36009 ft | 434 kts | 276° |
| 2026-05-06 08:57 | 47.83124 | 23.00658 | 36012 ft | 434 kts | 276° |
| 2026-05-06 08:57 | 47.83727 | 22.91718 | 36010 ft | 434 kts | 276° |
| 2026-05-06 08:58 | 47.84322 | 22.82837 | 36013 ft | 434 kts | 276° |
| 2026-05-06 08:58 | 47.84910 | 22.73895 | 36015 ft | 434 kts | 276° |
| 2026-05-06 08:59 | 47.85477 | 22.64974 | 36010 ft | 434 kts | 275° |
| 2026-05-06 08:59 | 47.86050 | 22.56041 | 36009 ft | 433 kts | 276° |
| 2026-05-06 09:00 | 47.86620 | 22.47115 | 36004 ft | 433 kts | 275° |
| 2026-05-06 09:00 | 47.87340 | 22.38230 | 36000 ft | 432 kts | 283° |
| 2026-05-06 09:01 | 47.89201 | 22.29790 | 35999 ft | 432 kts | 289° |
| 2026-05-06 09:01 | 47.91183 | 22.21341 | 35998 ft | 432 kts | 288° |
| 2026-05-06 09:02 | 47.93155 | 22.12883 | 35990 ft | 432 kts | 288° |
| 2026-05-06 09:02 | 47.95124 | 22.04422 | 35990 ft | 432 kts | 288° |
| 2026-05-06 09:03 | 47.97087 | 21.95954 | 35987 ft | 432 kts | 288° |
| 2026-05-06 09:03 | 47.99033 | 21.87539 | 35987 ft | 432 kts | 288° |
| 2026-05-06 09:04 | 48.00979 | 21.79062 | 35983 ft | 431 kts | 288° |
| 2026-05-06 09:04 | 48.02918 | 21.70580 | 35983 ft | 431 kts | 288° |
| 2026-05-06 09:05 | 48.04855 | 21.62094 | 35990 ft | 431 kts | 288° |
| 2026-05-06 09:05 | 48.06788 | 21.53603 | 35985 ft | 431 kts | 288° |
| 2026-05-06 09:06 | 48.08712 | 21.45104 | 35986 ft | 431 kts | 288° |
| 2026-05-06 09:06 | 48.10640 | 21.36541 | 35979 ft | 431 kts | 287° |
| 2026-05-06 09:07 | 48.12537 | 21.28086 | 35970 ft | 431 kts | 287° |
| 2026-05-06 09:07 | 48.14448 | 21.19520 | 35969 ft | 431 kts | 287° |
| 2026-05-06 09:08 | 48.16338 | 21.11062 | 35965 ft | 431 kts | 287° |
| 2026-05-06 09:08 | 48.18240 | 21.02482 | 35959 ft | 431 kts | 287° |
| 2026-05-06 09:09 | 48.20119 | 20.93952 | 35957 ft | 431 kts | 287° |
| 2026-05-06 09:09 | 48.21989 | 20.85480 | 35953 ft | 431 kts | 287° |
| 2026-05-06 09:10 | 48.23873 | 20.76891 | 35954 ft | 431 kts | 286° |
| 2026-05-06 09:10 | 48.25760 | 20.68243 | 35955 ft | 430 kts | 286° |
| 2026-05-06 09:11 | 48.27612 | 20.59717 | 35954 ft | 430 kts | 286° |
| 2026-05-06 09:11 | 48.29462 | 20.51185 | 35956 ft | 429 kts | 286° |
| 2026-05-06 09:12 | 48.31302 | 20.42658 | 35952 ft | 429 kts | 285° |
| 2026-05-06 09:12 | 48.33145 | 20.34191 | 35952 ft | 429 kts | 287° |
| 2026-05-06 09:13 | 48.35210 | 20.25775 | 35945 ft | 429 kts | 288° |
| 2026-05-06 09:13 | 48.37357 | 20.17403 | 35947 ft | 429 kts | 288° |
| 2026-05-06 09:14 | 48.39467 | 20.09020 | 35948 ft | 429 kts | 288° |
| 2026-05-06 09:14 | 48.41528 | 20.00640 | 35945 ft | 429 kts | 287° |
| 2026-05-06 09:15 | 48.43577 | 19.92212 | 35938 ft | 428 kts | 287° |
| 2026-05-06 09:15 | 48.45620 | 19.83782 | 35934 ft | 429 kts | 287° |
| 2026-05-06 09:16 | 48.47668 | 19.75354 | 35934 ft | 429 kts | 287° |
| 2026-05-06 09:16 | 48.49717 | 19.66917 | 35934 ft | 429 kts | 287° |
| 2026-05-06 09:17 | 48.51745 | 19.58517 | 35933 ft | 429 kts | 287° |
| 2026-05-06 09:17 | 48.53768 | 19.50063 | 35932 ft | 429 kts | 287° |
| 2026-05-06 09:18 | 48.55793 | 19.41579 | 35930 ft | 429 kts | 287° |
| 2026-05-06 09:18 | 48.57799 | 19.33152 | 35928 ft | 429 kts | 287° |
| 2026-05-06 09:19 | 48.59817 | 19.24678 | 35929 ft | 429 kts | 287° |
| 2026-05-06 09:19 | 48.61826 | 19.16178 | 35927 ft | 429 kts | 286° |
| 2026-05-06 09:20 | 48.63827 | 19.07691 | 35924 ft | 429 kts | 286° |
| 2026-05-06 09:20 | 48.65820 | 18.99189 | 35925 ft | 429 kts | 286° |
| 2026-05-06 09:21 | 48.67807 | 18.90664 | 35920 ft | 429 kts | 286° |
| 2026-05-06 09:21 | 48.69776 | 18.82213 | 35918 ft | 429 kts | 286° |
| 2026-05-06 09:22 | 48.71755 | 18.73688 | 35915 ft | 429 kts | 286° |
| 2026-05-06 09:22 | 48.73718 | 18.65159 | 35917 ft | 429 kts | 286° |
| 2026-05-06 09:23 | 48.75682 | 18.56632 | 35915 ft | 429 kts | 286° |
| 2026-05-06 09:23 | 48.77640 | 18.48097 | 35917 ft | 428 kts | 285° |
| 2026-05-06 09:24 | 48.79574 | 18.39603 | 35919 ft | 428 kts | 285° |
| 2026-05-06 09:24 | 48.81516 | 18.31063 | 35919 ft | 428 kts | 285° |
| 2026-05-06 09:25 | 48.83445 | 18.22541 | 35916 ft | 428 kts | 285° |
| 2026-05-06 09:25 | 48.85372 | 18.14001 | 35915 ft | 427 kts | 285° |
| 2026-05-06 09:26 | 48.87272 | 18.05517 | 35915 ft | 427 kts | 285° |
| 2026-05-06 09:26 | 48.89179 | 17.96981 | 35915 ft | 427 kts | 285° |
| 2026-05-06 09:27 | 48.91085 | 17.88456 | 35913 ft | 426 kts | 285° |
| 2026-05-06 09:27 | 48.92974 | 17.79958 | 35900 ft | 426 kts | 284° |
| 2026-05-06 09:28 | 48.94849 | 17.71432 | 35893 ft | 425 kts | 284° |
| 2026-05-06 09:28 | 48.96717 | 17.62919 | 35892 ft | 425 kts | 284° |
| 2026-05-06 09:29 | 48.98584 | 17.54393 | 35889 ft | 425 kts | 284° |
| 2026-05-06 09:29 | 49.00452 | 17.45840 | 35890 ft | 425 kts | 284° |
| 2026-05-06 09:30 | 49.02297 | 17.37351 | 35891 ft | 425 kts | 284° |
| 2026-05-06 09:30 | 49.04148 | 17.28803 | 35889 ft | 425 kts | 283° |
| 2026-05-06 09:31 | 49.05994 | 17.20251 | 35887 ft | 425 kts | 283° |
| 2026-05-06 09:31 | 49.07831 | 17.11692 | 35885 ft | 425 kts | 283° |
| 2026-05-06 09:32 | 49.09645 | 17.03189 | 35878 ft | 425 kts | 283° |
| 2026-05-06 09:32 | 49.11467 | 16.94617 | 35879 ft | 425 kts | 283° |
| 2026-05-06 09:33 | 49.13291 | 16.86037 | 35878 ft | 425 kts | 283° |
| 2026-05-06 09:33 | 49.15105 | 16.77443 | 35890 ft | 425 kts | 283° |
| 2026-05-06 09:34 | 49.16892 | 16.68908 | 35878 ft | 425 kts | 283° |
| 2026-05-06 09:34 | 49.18695 | 16.60298 | 35883 ft | 426 kts | 282° |
| 2026-05-06 09:35 | 49.20494 | 16.51663 | 35880 ft | 426 kts | 282° |
| 2026-05-06 09:35 | 49.22281 | 16.43036 | 35884 ft | 426 kts | 282° |
| 2026-05-06 09:36 | 49.24052 | 16.34445 | 35884 ft | 426 kts | 282° |
| 2026-05-06 09:36 | 49.25832 | 16.25797 | 35881 ft | 426 kts | 282° |
| 2026-05-06 09:37 | 49.27611 | 16.17139 | 35884 ft | 426 kts | 282° |
| 2026-05-06 09:37 | 49.29382 | 16.08460 | 35889 ft | 426 kts | 282° |
| 2026-05-06 09:38 | 49.31119 | 15.99865 | 35885 ft | 426 kts | 282° |
| 2026-05-06 09:38 | 49.32874 | 15.91180 | 35883 ft | 426 kts | 282° |
| 2026-05-06 09:39 | 49.34624 | 15.82488 | 35879 ft | 426 kts | 282° |
| 2026-05-06 09:39 | 49.36067 | 15.75285 | 35880 ft | 426 kts | 282° |
| 2026-05-06 09:40 | 49.38080 | 15.65194 | 35878 ft | 425 kts | 282° |
| 2026-05-06 09:40 | 49.40666 | 15.52196 | 35880 ft | 424 kts | 282° |
| 2026-05-06 09:41 | 49.42090 | 15.44981 | 35875 ft | 424 kts | 281° |
| 2026-05-06 09:41 | 49.44069 | 15.34891 | 35874 ft | 424 kts | 281° |
| 2026-05-06 09:42 | 49.45763 | 15.26221 | 35871 ft | 424 kts | 281° |
| 2026-05-06 09:42 | 49.47449 | 15.17567 | 35871 ft | 423 kts | 281° |
| 2026-05-06 09:43 | 49.48845 | 15.10356 | 35868 ft | 423 kts | 281° |
| 2026-05-06 09:43 | 49.50510 | 15.01675 | 35867 ft | 423 kts | 281° |
| 2026-05-06 09:44 | 49.52447 | 14.91578 | 35865 ft | 423 kts | 281° |
| 2026-05-06 09:44 | 49.53856 | 14.84372 | 35860 ft | 424 kts | 282° |
| 2026-05-06 09:45 | 49.55799 | 14.75791 | 35861 ft | 425 kts | 284° |
| 2026-05-06 09:45 | 49.57829 | 14.67244 | 35863 ft | 425 kts | 284° |
| 2026-05-06 09:46 | 49.59810 | 14.58670 | 35856 ft | 424 kts | 284° |
| 2026-05-06 09:46 | 49.61741 | 14.50068 | 35848 ft | 424 kts | 283° |
| 2026-05-06 09:47 | 49.63631 | 14.41535 | 35849 ft | 424 kts | 283° |
| 2026-05-06 09:47 | 49.65548 | 14.32929 | 35857 ft | 424 kts | 283° |
| 2026-05-06 09:48 | 49.67466 | 14.24337 | 35862 ft | 424 kts | 283° |
| 2026-05-06 09:48 | 49.69386 | 14.15712 | 35863 ft | 424 kts | 283° |
| 2026-05-06 09:49 | 49.71278 | 14.07163 | 35863 ft | 424 kts | 283° |
| 2026-05-06 09:49 | 49.73173 | 13.98541 | 35860 ft | 424 kts | 283° |
| 2026-05-06 09:50 | 49.75063 | 13.89898 | 35861 ft | 424 kts | 283° |
| 2026-05-06 09:50 | 49.76949 | 13.81258 | 35859 ft | 424 kts | 283° |
| 2026-05-06 09:51 | 49.78816 | 13.72660 | 35858 ft | 424 kts | 283° |
| 2026-05-06 09:51 | 49.80681 | 13.64005 | 35853 ft | 424 kts | 283° |
| 2026-05-06 09:52 | 49.82546 | 13.55329 | 35854 ft | 424 kts | 283° |
| 2026-05-06 09:52 | 49.84405 | 13.46660 | 35854 ft | 424 kts | 283° |
| 2026-05-06 09:53 | 49.86249 | 13.38040 | 35856 ft | 425 kts | 283° |
| 2026-05-06 09:53 | 49.88096 | 13.29345 | 35847 ft | 425 kts | 283° |
| 2026-05-06 09:54 | 49.89946 | 13.20636 | 35849 ft | 425 kts | 283° |
| 2026-05-06 09:54 | 49.91784 | 13.11926 | 35844 ft | 425 kts | 283° |
| 2026-05-06 09:55 | 49.93604 | 13.03241 | 35832 ft | 426 kts | 283° |
| 2026-05-06 09:55 | 49.95423 | 12.94515 | 35831 ft | 426 kts | 283° |
| 2026-05-06 09:56 | 49.97250 | 12.85749 | 35834 ft | 426 kts | 283° |
| 2026-05-06 09:56 | 49.99071 | 12.76979 | 35835 ft | 427 kts | 282° |
| 2026-05-06 09:57 | 50.00880 | 12.68201 | 35833 ft | 427 kts | 282° |
| 2026-05-06 09:57 | 50.02670 | 12.59445 | 35827 ft | 427 kts | 282° |
| 2026-05-06 09:58 | 50.04464 | 12.50635 | 35817 ft | 428 kts | 282° |
| 2026-05-06 09:58 | 50.06175 | 12.41772 | 35808 ft | 424 kts | 276° |
| 2026-05-06 09:59 | 50.06630 | 12.32731 | 35801 ft | 418 kts | 267° |
| 2026-05-06 09:59 | 50.06743 | 12.23740 | 35799 ft | 419 kts | 267° |
| 2026-05-06 10:00 | 50.06853 | 12.14682 | 35801 ft | 419 kts | 267° |
| 2026-05-06 10:00 | 50.06954 | 12.05615 | 35814 ft | 420 kts | 266° |
| 2026-05-06 10:01 | 50.07040 | 11.96530 | 35817 ft | 420 kts | 266° |
| 2026-05-06 10:01 | 50.07112 | 11.87507 | 35819 ft | 420 kts | 266° |
| 2026-05-06 10:02 | 50.07182 | 11.78416 | 35818 ft | 420 kts | 266° |
| 2026-05-06 10:02 | 50.07248 | 11.69317 | 35818 ft | 421 kts | 266° |
| 2026-05-06 10:03 | 50.07298 | 11.60219 | 35814 ft | 421 kts | 266° |
| 2026-05-06 10:03 | 50.07344 | 11.51079 | 35526 ft | 421 kts | 267° |
| 2026-05-06 10:04 | 50.07367 | 11.46536 | 35855 ft | 424 kts | 266° |
| 2026-05-06 10:04 | 50.07393 | 11.42031 | 35793 ft | 420 kts | 266° |
| 2026-05-06 10:04 | 50.07444 | 11.32940 | 35788 ft | 420 kts | 266° |
| 2026-05-06 10:05 | 50.07477 | 11.23837 | 35793 ft | 421 kts | 266° |
| 2026-05-06 10:05 | 50.07492 | 11.14699 | 35791 ft | 422 kts | 266° |
| 2026-05-06 10:06 | 50.07512 | 11.05614 | 35794 ft | 423 kts | 266° |
| 2026-05-06 10:06 | 50.07523 | 10.96455 | 35788 ft | 423 kts | 266° |
| 2026-05-06 10:07 | 50.07529 | 10.87291 | 35790 ft | 424 kts | 266° |
| 2026-05-06 10:07 | 50.07521 | 10.78102 | 35789 ft | 424 kts | 265° |
| 2026-05-06 10:08 | 50.07511 | 10.68915 | 35787 ft | 424 kts | 265° |
| 2026-05-06 10:08 | 50.07488 | 10.59722 | 35784 ft | 425 kts | 265° |
| 2026-05-06 10:09 | 50.07463 | 10.50531 | 35783 ft | 425 kts | 265° |
| 2026-05-06 10:09 | 50.07432 | 10.41311 | 35776 ft | 426 kts | 265° |
| 2026-05-06 10:10 | 50.07386 | 10.32110 | 35772 ft | 426 kts | 265° |
| 2026-05-06 10:10 | 50.07329 | 10.22936 | 35769 ft | 427 kts | 265° |
| 2026-05-06 10:11 | 50.07281 | 10.13674 | 35774 ft | 428 kts | 265° |
| 2026-05-06 10:11 | 50.07240 | 10.04411 | 35772 ft | 428 kts | 265° |
| 2026-05-06 10:12 | 50.07170 | 9.95148 | 35777 ft | 429 kts | 265° |
| 2026-05-06 10:12 | 50.07079 | 9.85919 | 35771 ft | 429 kts | 265° |
| 2026-05-06 10:13 | 50.07516 | 9.76600 | 35778 ft | 437 kts | 278° |
| 2026-05-06 10:13 | 50.09436 | 9.67585 | 35777 ft | 442 kts | 284° |
| 2026-05-06 10:14 | 50.11479 | 9.58552 | 35778 ft | 442 kts | 284° |
| 2026-05-06 10:14 | 50.13513 | 9.49496 | 35775 ft | 442 kts | 284° |
| 2026-05-06 10:15 | 50.15536 | 9.40456 | 35778 ft | 442 kts | 284° |
| 2026-05-06 10:15 | 50.17557 | 9.31368 | 35777 ft | 443 kts | 284° |
| 2026-05-06 10:16 | 50.19585 | 9.22226 | 35779 ft | 443 kts | 284° |
| 2026-05-06 10:16 | 50.21581 | 9.13126 | 35781 ft | 443 kts | 284° |
| 2026-05-06 10:17 | 50.23583 | 9.03967 | 35779 ft | 443 kts | 284° |
| 2026-05-06 10:17 | 50.24806 | 8.99521 | 35777 ft | 449 kts | 295° |
| 2026-05-06 10:17 | 50.26653 | 8.95428 | 35772 ft | 456 kts | 308° |
| 2026-05-06 10:18 | 50.28503 | 8.92671 | 35763 ft | 462 kts | 318° |
| 2026-05-06 10:18 | 50.31104 | 8.90059 | 35764 ft | 468 kts | 330° |
| 2026-05-06 10:18 | 50.34249 | 8.88236 | 35759 ft | 474 kts | 343° |
| 2026-05-06 10:19 | 50.40775 | 8.86726 | 35753 ft | 478 kts | 349° |
| 2026-05-06 10:19 | 50.47397 | 8.85349 | 35754 ft | 478 kts | 349° |
| 2026-05-06 10:20 | 50.50624 | 8.84674 | 35523 ft | 478 kts | 349° |
| 2026-05-06 10:20 | 50.54140 | 8.83937 | 35259 ft | 478 kts | 349° |
| 2026-05-06 10:20 | 50.57251 | 8.83281 | 35028 ft | 477 kts | 348° |
| 2026-05-06 10:20 | 50.60462 | 8.82241 | 34210 ft | 480 kts | 340° |
| 2026-05-06 10:21 | 50.63603 | 8.80323 | 33339 ft | 480 kts | 329° |
| 2026-05-06 10:21 | 50.66452 | 8.77728 | 32763 ft | 473 kts | 321° |
| 2026-05-06 10:21 | 50.69130 | 8.74478 | 31950 ft | 470 kts | 315° |
| 2026-05-06 10:21 | 50.71591 | 8.71213 | 31178 ft | 471 kts | 315° |
| 2026-05-06 10:22 | 50.74064 | 8.67918 | 30425 ft | 471 kts | 315° |
| 2026-05-06 10:22 | 50.76561 | 8.64576 | 29622 ft | 472 kts | 315° |
| 2026-05-06 10:22 | 50.79105 | 8.61159 | 28640 ft | 473 kts | 315° |
| 2026-05-06 10:22 | 50.81598 | 8.57799 | 27603 ft | 475 kts | 315° |
| 2026-05-06 10:23 | 50.84123 | 8.54390 | 26532 ft | 479 kts | 316° |
| 2026-05-06 10:23 | 50.86639 | 8.50992 | 25460 ft | 482 kts | 316° |
| 2026-05-06 10:23 | 50.89197 | 8.47538 | 24311 ft | 486 kts | 316° |
| 2026-05-06 10:23 | 50.91840 | 8.43970 | 23289 ft | 487 kts | 316° |
| 2026-05-06 10:24 | 50.94367 | 8.40555 | 22452 ft | 479 kts | 317° |
| 2026-05-06 10:24 | 50.96947 | 8.37066 | 21585 ft | 473 kts | 317° |
| 2026-05-06 10:24 | 50.99435 | 8.33693 | 20736 ft | 467 kts | 317° |
| 2026-05-06 10:24 | 51.01973 | 8.30505 | 19863 ft | 463 kts | 323° |
| 2026-05-06 10:25 | 51.04729 | 8.27900 | 19045 ft | 459 kts | 328° |
| 2026-05-06 10:25 | 51.07459 | 8.25459 | 18265 ft | 454 kts | 328° |
| 2026-05-06 10:25 | 51.10217 | 8.22999 | 17395 ft | 449 kts | 328° |
| 2026-05-06 10:25 | 51.12896 | 8.20618 | 16577 ft | 443 kts | 329° |
| 2026-05-06 10:26 | 51.15649 | 8.18177 | 15771 ft | 438 kts | 329° |
| 2026-05-06 10:26 | 51.18392 | 8.15737 | 14956 ft | 433 kts | 329° |
| 2026-05-06 10:26 | 51.20959 | 8.13450 | 14203 ft | 428 kts | 329° |
| 2026-05-06 10:26 | 51.23433 | 8.11240 | 13773 ft | 417 kts | 328° |
| 2026-05-06 10:27 | 51.25939 | 8.08995 | 13652 ft | 399 kts | 328° |
| 2026-05-06 10:27 | 51.28385 | 8.06803 | 13523 ft | 381 kts | 328° |
| 2026-05-06 10:27 | 51.30600 | 8.04818 | 13410 ft | 367 kts | 328° |
| 2026-05-06 10:27 | 51.32800 | 8.02844 | 13256 ft | 352 kts | 328° |
| 2026-05-06 10:28 | 51.34881 | 8.00968 | 13128 ft | 340 kts | 328° |
| 2026-05-06 10:28 | 51.36900 | 7.99143 | 13001 ft | 329 kts | 328° |
| 2026-05-06 10:28 | 51.38872 | 7.97356 | 12872 ft | 320 kts | 328° |
| 2026-05-06 10:28 | 51.40785 | 7.95620 | 12651 ft | 314 kts | 328° |
| 2026-05-06 10:29 | 51.42676 | 7.93907 | 12345 ft | 311 kts | 328° |
| 2026-05-06 10:29 | 51.44552 | 7.92214 | 12036 ft | 309 kts | 328° |
| 2026-05-06 10:29 | 51.46423 | 7.90448 | 11703 ft | 306 kts | 321° |
| 2026-05-06 10:29 | 51.47955 | 7.88011 | 11371 ft | 300 kts | 303° |
| 2026-05-06 10:30 | 51.48892 | 7.85099 | 11047 ft | 295 kts | 285° |
| 2026-05-06 10:30 | 51.49269 | 7.82917 | 10829 ft | 294 kts | 282° |
| 2026-05-06 10:30 | 51.49941 | 7.78837 | 10417 ft | 292 kts | 283° |
| 2026-05-06 10:30 | 51.50460 | 7.75687 | 10100 ft | 291 kts | 283° |
| 2026-05-06 10:31 | 51.50984 | 7.72509 | 9771 ft | 290 kts | 283° |
| 2026-05-06 10:31 | 51.51334 | 7.70385 | 9558 ft | 289 kts | 283° |
| 2026-05-06 10:31 | 51.51851 | 7.67248 | 9207 ft | 288 kts | 282° |
| 2026-05-06 10:31 | 51.52104 | 7.64018 | 8862 ft | 283 kts | 265° |
| 2026-05-06 10:32 | 51.51716 | 7.61003 | 8520 ft | 280 kts | 247° |
| 2026-05-06 10:32 | 51.50881 | 7.58382 | 7958 ft | 285 kts | 239° |
| 2026-05-06 10:32 | 51.49875 | 7.55541 | 7178 ft | 299 kts | 239° |
| 2026-05-06 10:32 | 51.48820 | 7.52592 | 6379 ft | 311 kts | 239° |
| 2026-05-06 10:33 | 51.47720 | 7.49528 | 5521 ft | 322 kts | 239° |
| 2026-05-06 10:33 | 51.46574 | 7.46327 | 4634 ft | 331 kts | 239° |
| 2026-05-06 10:33 | 51.45384 | 7.42994 | 3677 ft | 330 kts | 240° |
| 2026-05-06 10:33 | 51.44287 | 7.39911 | 2897 ft | 320 kts | 240° |
| 2026-05-06 10:34 | 51.43207 | 7.36863 | 2599 ft | 296 kts | 240° |
| 2026-05-06 10:34 | 51.42244 | 7.34155 | 2495 ft | 271 kts | 239° |
| 2026-05-06 10:34 | 51.41034 | 7.32121 | 2499 ft | 238 kts | 206° |
| 2026-05-06 10:34 | 51.39522 | 7.31736 | 2499 ft | 206 kts | 167° |
| 2026-05-06 10:35 | 51.38382 | 7.32669 | 2509 ft | 175 kts | 134° |
| 2026-05-06 10:35 | 51.37784 | 7.34192 | 2513 ft | 152 kts | 106° |
| 2026-05-06 10:35 | 51.37685 | 7.35802 | 2508 ft | 142 kts | 81° |
| 2026-05-06 10:35 | 51.38000 | 7.37269 | 2504 ft | 139 kts | 58° |
| 2026-05-06 10:36 | 51.38651 | 7.38393 | 2500 ft | 138 kts | 34° |
| 2026-05-06 10:36 | 51.39493 | 7.39129 | 2499 ft | 138 kts | 27° |
| 2026-05-06 10:36 | 51.40341 | 7.39840 | 2503 ft | 138 kts | 28° |
| 2026-05-06 10:36 | 51.41188 | 7.40554 | 2503 ft | 138 kts | 28° |
| 2026-05-06 10:37 | 51.42040 | 7.41269 | 2508 ft | 138 kts | 27° |
| 2026-05-06 10:37 | 51.42887 | 7.41980 | 2505 ft | 138 kts | 28° |
| 2026-05-06 10:37 | 51.43731 | 7.42689 | 2507 ft | 138 kts | 28° |
| 2026-05-06 10:37 | 51.44590 | 7.43410 | 2502 ft | 138 kts | 28° |
| 2026-05-06 10:38 | 51.45445 | 7.44135 | 2506 ft | 139 kts | 30° |
| 2026-05-06 10:38 | 51.46111 | 7.45212 | 2482 ft | 138 kts | 62° |
| 2026-05-06 10:38 | 51.46586 | 7.46534 | 2383 ft | 138 kts | 58° |
| 2026-05-06 10:38 | 51.47081 | 7.47847 | 2216 ft | 137 kts | 59° |
| 2026-05-06 10:39 | 51.47558 | 7.49153 | 2048 ft | 135 kts | 59° |
| 2026-05-06 10:39 | 51.48025 | 7.50453 | 1866 ft | 134 kts | 59° |
| 2026-05-06 10:39 | 51.48483 | 7.51737 | 1692 ft | 132 kts | 58° |
| 2026-05-06 10:39 | 51.48936 | 7.53014 | 1511 ft | 130 kts | 58° |
| 2026-05-06 10:40 | 51.49385 | 7.54281 | 1338 ft | 130 kts | 58° |
| 2026-05-06 10:40 | 51.49829 | 7.55537 | 1153 ft | 131 kts | 59° |
| 2026-05-06 10:40 | 51.50283 | 7.56823 | 995 ft | 131 kts | 58° |
| 2026-05-06 10:40 | 51.50732 | 7.58097 | 819 ft | 131 kts | 58° |
| 2026-05-06 10:41 | 51.51183 | 7.59376 | 654 ft | 131 kts | 58° |
| 2026-05-06 10:41 | 51.51631 | 7.60647 | 469 ft | 130 kts | 58° |
| 2026-05-06 10:41 | 51.52052 | 7.61841 | 410 ft | 87 kts | 60° |
| 2026-05-06 10:41 | 51.52175 | 7.62200 | 414 ft | 14 kts | 77° |
| 2026-05-06 10:42 | 51.52164 | 7.62320 | 412 ft | 14 kts | 130° |
| 2026-05-06 10:42 | 51.52124 | 7.62374 | 413 ft | 10 kts | 142° |
| 2026-05-06 10:42 | 51.52055 | 7.62384 | 412 ft | 10 kts | 211° |
| 2026-05-06 10:42 | 51.52029 | 7.62334 | 412 ft | 8 kts | 232° |
| 2026-05-06 10:43 | 51.51983 | 7.62231 | 412 ft | 14 kts | 241° |
| 2026-05-06 10:43 | 51.51943 | 7.62105 | 411 ft | 10 kts | 242° |
| 2026-05-06 10:43 | 51.51915 | 7.62021 | 411 ft | 12 kts | 240° |
| 2026-05-06 10:44 | 51.51811 | 7.61726 | 418 ft | 19 kts | 238° |
| 2026-05-06 10:44 | 51.51784 | 7.61627 | 414 ft | 5 kts | 247° |
| 2026-05-06 10:44 | 51.51774 | 7.61594 | 419 ft | 2 kts | 242° |
| 2026-05-06 10:44 | 51.51755 | 7.61561 | 425 ft | 5 kts | 201° |
| 2026-05-06 10:45 | 51.51714 | 7.61562 | 419 ft | 6 kts | 165° |
| 2026-05-06 10:45 | 51.51683 | 7.61589 | 422 ft | 0 kts | 150° |
| 2026-05-06 10:46 | 51.51639 | 7.61478 | 424 ft | 0 kts | 151° |